createdAt,value
2022-08-25T00:00:58.021Z,7.35
2022-08-25T00:03:03.077Z,7.57
2022-08-25T00:05:10.657Z,6.65
2022-08-25T00:07:18.671Z,7.57
2022-08-25T00:09:29.230Z,9.27
2022-08-25T00:11:36.470Z,7.70
2022-08-25T00:13:43.930Z,8.45
2022-08-25T00:15:49.225Z,10.82
2022-08-25T00:17:54.394Z,7.30
2022-08-25T00:22:05.232Z,7.60
2022-08-25T00:24:11.060Z,7.82
2022-08-25T00:26:19.470Z,8.65
2022-08-25T00:28:24.652Z,8.07
2022-08-25T00:32:34.500Z,8.73
2022-08-25T00:34:41.322Z,8.13
2022-08-25T00:36:47.296Z,7.80
2022-08-25T00:38:52.564Z,8.10
2022-08-25T00:41:08.575Z,7.88
2022-08-25T00:43:16.076Z,7.55
2022-08-25T00:45:21.605Z,7.57
2022-08-25T00:47:26.431Z,8.80
2022-08-25T00:49:34.594Z,8.57
2022-08-25T00:51:45.751Z,8.02
2022-08-25T00:53:51.381Z,9.48
2022-08-25T00:55:56.458Z,9.88
2022-08-25T01:00:16.134Z,9.32
2022-08-25T01:02:21.761Z,10.13
2022-08-25T01:04:26.805Z,10.90
2022-08-25T01:08:37.383Z,10.73
2022-08-25T01:10:45.687Z,8.95
2022-08-25T01:12:50.928Z,9.43
2022-08-25T01:14:56.730Z,11.52
2022-08-25T01:17:04.580Z,9.80
2022-08-25T01:19:15.185Z,8.35
2022-08-25T01:21:25.432Z,11.90
2022-08-25T01:23:30.508Z,9.15
2022-08-25T01:27:47.280Z,9.77
2022-08-25T01:29:52.648Z,8.32
2022-08-25T01:32:00.353Z,8.50
2022-08-25T01:34:06.205Z,10.05
2022-08-25T01:36:11.261Z,9.70
2022-08-25T01:38:21.023Z,9.27
2022-08-25T01:40:28.076Z,8.68
2022-08-25T01:42:44.764Z,11.75
2022-08-25T01:44:50.545Z,10.07
2022-08-25T01:46:56.675Z,10.13
2022-08-25T01:49:06.585Z,9.25
2022-08-25T01:51:11.815Z,9.35
2022-08-25T01:55:26.989Z,9.20
2022-08-25T01:59:36.933Z,9.95
2022-08-25T02:01:41.865Z,9.60
2022-08-25T02:03:49.733Z,9.45
2022-08-25T02:05:56.910Z,7.90
2022-08-25T02:08:02.011Z,10.18
2022-08-25T02:12:15.590Z,10.60
2022-08-25T02:14:21.317Z,10.63
2022-08-25T02:16:30.886Z,9.25
2022-08-25T02:18:35.792Z,10.85
2022-08-25T02:20:41.067Z,10.45
2022-08-25T02:22:48.974Z,9.90
2022-08-25T02:27:10.264Z,11.35
2022-08-25T02:29:16.429Z,10.32
2022-08-25T02:31:23.665Z,10.65
2022-08-25T02:33:28.835Z,9.40
2022-08-25T02:37:39.840Z,10.40
2022-08-25T02:39:44.773Z,10.60
2022-08-25T02:41:49.635Z,12.82
2022-08-25T02:43:57.115Z,10.93
2022-08-25T02:46:02.160Z,11.02
2022-08-25T02:48:09.034Z,11.95
2022-08-25T02:50:15.079Z,10.32
2022-08-25T02:52:20.431Z,10.55
2022-08-25T02:54:26.202Z,9.98
2022-08-25T02:56:32.191Z,10.10
2022-08-25T02:58:37.163Z,10.43
2022-08-25T03:00:46.096Z,11.68
2022-08-25T03:02:51.174Z,10.90
2022-08-25T03:04:57.333Z,12.68
2022-08-25T03:07:03.870Z,11.80
2022-08-25T03:09:08.792Z,11.02
2022-08-25T03:11:14.118Z,10.50
2022-08-25T03:13:19.721Z,11.85
2022-08-25T03:15:26.120Z,12.23
2022-08-25T03:17:33.914Z,12.75
2022-08-25T03:19:40.837Z,10.30
2022-08-25T03:21:45.946Z,10.65
2022-08-25T03:26:09.285Z,11.73
2022-08-25T03:28:14.781Z,11.07
2022-08-25T03:30:19.629Z,12.65
2022-08-25T03:32:24.460Z,11.32
2022-08-25T03:34:33.127Z,12.02
2022-08-25T03:36:38.202Z,11.18
2022-08-25T03:40:48.111Z,12.93
2022-08-25T03:42:53.064Z,12.40
2022-08-25T03:44:57.939Z,11.90
2022-08-25T03:47:02.807Z,12.35
2022-08-25T03:49:10.518Z,11.25
2022-08-25T03:51:22.752Z,12.25
2022-08-25T03:53:27.631Z,11.85
2022-08-25T03:55:32.904Z,13.30
2022-08-25T03:59:43.217Z,12.63
2022-08-25T04:01:54.463Z,11.35
2022-08-25T04:04:00.299Z,11.40
2022-08-25T04:06:05.420Z,10.90
2022-08-25T04:08:13.089Z,11.30
2022-08-25T04:10:18.394Z,11.70
2022-08-25T04:12:23.489Z,11.05
2022-08-25T04:16:35.875Z,11.32
2022-08-25T04:18:41.139Z,11.43
2022-08-25T04:20:47.565Z,12.15
2022-08-25T04:22:52.341Z,10.35
2022-08-25T04:25:01.464Z,11.43
2022-08-25T04:27:06.804Z,11.55
2022-08-25T04:29:13.214Z,11.88
2022-08-25T04:31:20.124Z,11.40
2022-08-25T04:33:25.041Z,12.55
2022-08-25T04:35:29.900Z,11.98
2022-08-25T04:37:35.257Z,12.13
2022-08-25T04:39:40.714Z,11.85
2022-08-25T04:41:48.204Z,11.57
2022-08-25T04:43:53.744Z,10.93
2022-08-25T04:45:58.823Z,12.38
2022-08-25T04:48:03.779Z,10.88
2022-08-25T04:50:09.617Z,10.25
2022-08-25T04:52:14.813Z,11.25
2022-08-25T04:54:21.818Z,13.70
2022-08-25T04:56:27.719Z,10.88
2022-08-25T04:58:35.580Z,10.90
2022-08-25T05:00:41.015Z,12.70
2022-08-25T05:02:45.857Z,14.85
2022-08-25T05:04:50.776Z,12.18
2022-08-25T05:06:55.694Z,11.38
2022-08-25T05:09:01.731Z,11.40
2022-08-25T05:11:09.048Z,12.10
2022-08-25T05:13:13.985Z,12.65
2022-08-25T05:15:34.405Z,13.52
2022-08-25T05:17:39.298Z,12.32
2022-08-25T05:19:44.419Z,14.55
2022-08-25T05:23:58.340Z,13.85
2022-08-25T05:26:07.728Z,15.48
2022-08-25T05:28:13.266Z,15.27
2022-08-25T05:30:18.153Z,13.02
2022-08-25T05:32:25.566Z,16.20
2022-08-25T05:34:31.209Z,11.77
2022-08-25T05:36:36.610Z,11.63
2022-08-25T05:38:42.691Z,13.27
2022-08-25T05:40:47.609Z,11.63
2022-08-25T05:42:52.453Z,11.35
2022-08-25T05:44:58.750Z,16.73
2022-08-25T05:47:03.582Z,12.50
2022-08-25T05:49:11.022Z,15.50
2022-08-25T05:51:16.550Z,11.40
2022-08-25T05:53:21.638Z,14.80
2022-08-25T05:55:26.555Z,13.85
2022-08-25T05:57:31.440Z,13.77
2022-08-25T05:59:36.512Z,12.23
2022-08-25T06:01:53.885Z,12.55
2022-08-25T06:04:00.162Z,17.80
2022-08-25T06:06:11.906Z,16.42
2022-08-25T06:08:17.436Z,14.07
2022-08-25T06:10:22.980Z,13.38
2022-08-25T06:12:27.833Z,12.73
2022-08-25T06:14:32.737Z,13.57
2022-08-25T06:16:38.590Z,12.77
2022-08-25T06:18:43.711Z,14.50
2022-08-25T06:20:48.600Z,16.33
2022-08-25T06:22:56.957Z,15.50
2022-08-25T06:25:01.805Z,13.02
2022-08-25T06:27:08.036Z,13.32
2022-08-25T06:29:14.196Z,14.93
2022-08-25T06:31:19.569Z,16.85
2022-08-25T06:33:24.579Z,13.85
2022-08-25T06:35:29.748Z,14.15
2022-08-25T06:37:36.445Z,14.10
2022-08-25T06:39:44.278Z,13.88
2022-08-25T06:41:54.029Z,13.13
2022-08-25T06:44:05.453Z,15.57
2022-08-25T06:46:14.869Z,12.73
2022-08-25T06:48:20.001Z,14.63
2022-08-25T06:52:29.999Z,14.35
2022-08-25T06:54:34.911Z,12.88
2022-08-25T06:56:43.566Z,13.20
2022-08-25T06:58:48.734Z,12.32
2022-08-25T07:00:53.858Z,12.85
2022-08-25T07:03:01.195Z,14.95
2022-08-25T07:05:06.460Z,12.55
2022-08-25T07:07:13.064Z,15.35
2022-08-25T07:09:18.712Z,12.38
2022-08-25T07:11:23.741Z,13.63
2022-08-25T07:15:41.341Z,13.52
2022-08-25T07:17:46.408Z,15.80
2022-08-25T07:19:57.660Z,13.13
2022-08-25T07:22:02.737Z,14.07
2022-08-25T07:24:10.266Z,19.80
2022-08-25T07:26:36.677Z,17.15
2022-08-25T07:28:47.252Z,14.50
2022-08-25T07:30:53.442Z,12.70
2022-08-25T07:32:58.364Z,12.98
2022-08-25T07:35:15.592Z,11.90
2022-08-25T07:37:48.400Z,18.05
2022-08-25T07:39:49.637Z,12.52
2022-08-25T07:41:58.472Z,14.13
2022-08-25T07:44:06.344Z,11.48
2022-08-25T07:46:11.964Z,16.17
2022-08-25T07:48:19.799Z,12.45
2022-08-25T07:50:26.089Z,13.70
2022-08-25T07:52:31.081Z,12.35
2022-08-25T07:56:43.890Z,14.68
2022-08-25T07:58:50.205Z,10.20
2022-08-25T08:00:57.946Z,10.88
2022-08-25T08:03:03.989Z,9.60
2022-08-25T08:05:10.364Z,12.23
2022-08-25T08:07:15.170Z,14.02
2022-08-25T08:09:20.078Z,11.70
2022-08-25T08:11:28.034Z,13.23
2022-08-25T08:13:34.865Z,13.05
2022-08-25T08:15:45.582Z,10.75
2022-08-25T08:17:53.358Z,10.57
2022-08-25T08:19:58.469Z,12.27
2022-08-25T08:24:31.246Z,12.00
2022-08-25T08:26:57.711Z,11.70
2022-08-25T08:29:00.592Z,10.33
2022-08-25T08:31:06.167Z,10.00
2022-08-25T08:33:18.288Z,9.15
2022-08-25T08:35:24.608Z,11.13
2022-08-25T08:39:35.047Z,9.35
2022-08-25T08:42:11.131Z,7.20
2022-08-25T08:44:30.556Z,8.27
2022-08-25T08:46:43.815Z,15.65
2022-08-25T08:51:15.388Z,8.20
2022-08-25T08:53:27.561Z,7.47
2022-08-25T08:55:42.538Z,8.65
2022-08-25T08:57:52.433Z,10.88
2022-08-25T09:00:03.204Z,21.30
2022-08-25T09:02:15.821Z,8.60
2022-08-25T09:04:51.014Z,8.02
2022-08-25T09:07:01.117Z,7.30
2022-08-25T09:09:08.661Z,7.63
2022-08-25T09:11:19.076Z,7.88
2022-08-25T09:13:36.096Z,10.80
2022-08-25T09:16:03.294Z,8.82
2022-08-25T09:18:19.922Z,9.73
2022-08-25T09:20:51.823Z,9.68
2022-08-25T09:23:05.689Z,8.98
2022-08-25T09:25:29.425Z,7.75
2022-08-25T09:27:51.263Z,7.90
2022-08-25T09:30:05.216Z,7.03
2022-08-25T09:32:11.259Z,7.10
2022-08-25T09:34:23.393Z,7.00
2022-08-25T09:36:35.454Z,9.68
2022-08-25T09:38:42.893Z,7.57
2022-08-25T09:40:50.737Z,7.88
2022-08-25T09:42:59.614Z,5.40
2022-08-25T09:45:05.058Z,21.00
2022-08-25T09:47:21.969Z,6.10
2022-08-25T09:49:34.811Z,9.13
2022-08-25T09:51:43.449Z,5.93
2022-08-25T09:53:54.333Z,6.53
2022-08-25T09:56:06.047Z,7.38
2022-08-25T09:58:22.176Z,7.70
2022-08-25T10:00:31.232Z,7.13
2022-08-25T10:02:36.111Z,6.53
2022-08-25T10:04:43.454Z,8.20
2022-08-25T10:06:54.371Z,7.47
2022-08-25T10:09:03.462Z,7.72
2022-08-25T10:11:14.816Z,9.38
2022-08-25T10:13:23.806Z,6.20
2022-08-25T10:15:33.207Z,7.75
2022-08-25T10:17:38.631Z,6.78
2022-08-25T10:19:44.274Z,7.18
2022-08-25T10:22:04.329Z,8.52
2022-08-25T10:24:14.492Z,7.75
2022-08-25T10:26:33.055Z,10.75
2022-08-25T10:28:47.066Z,9.93
2022-08-25T10:31:09.619Z,7.03
2022-08-25T10:33:23.183Z,7.88
2022-08-25T10:35:33.117Z,7.70
2022-08-25T10:37:47.724Z,6.40
2022-08-25T10:40:06.257Z,6.68
2022-08-25T10:42:31.697Z,7.03
2022-08-25T10:44:54.767Z,6.85
2022-08-25T10:47:17.772Z,7.30
2022-08-25T10:49:31.295Z,8.75
2022-08-25T10:54:10.526Z,10.15
2022-08-25T10:56:21.943Z,7.15
2022-08-25T10:58:34.522Z,9.48
2022-08-25T11:00:48.335Z,11.85
2022-08-25T11:03:16.643Z,9.65
2022-08-25T11:05:29.350Z,8.52
2022-08-25T11:07:38.453Z,9.40
2022-08-25T11:09:46.813Z,5.80
2022-08-25T11:12:01.347Z,7.75
2022-08-25T11:14:11.492Z,7.07
2022-08-25T11:16:21.054Z,7.32
2022-08-25T11:18:31.951Z,6.90
2022-08-25T11:20:44.228Z,11.20
2022-08-25T11:22:57.004Z,7.05
2022-08-25T11:25:11.015Z,7.57
2022-08-25T11:27:25.177Z,6.53
2022-08-25T11:29:36.808Z,7.90
2022-08-25T11:31:48.330Z,9.18
2022-08-25T11:33:59.760Z,9.95
2022-08-25T11:36:13.445Z,7.85
2022-08-25T11:38:38.684Z,7.00
2022-08-25T11:41:11.029Z,7.50
2022-08-25T11:43:42.834Z,7.97
2022-08-25T11:45:57.822Z,8.05
2022-08-25T11:48:18.621Z,10.35
2022-08-25T11:50:31.785Z,10.80
2022-08-25T11:52:54.198Z,13.90
2022-08-25T11:54:59.238Z,11.75
2022-08-25T11:57:07.729Z,9.02
2022-08-25T11:59:15.170Z,12.40
2022-08-25T12:01:50.575Z,24.52
2022-08-25T12:04:16.133Z,13.35
2022-08-25T12:06:25.543Z,8.52
2022-08-25T12:08:57.478Z,8.32
2022-08-25T12:11:10.678Z,7.60
2022-08-25T12:13:45.037Z,10.50
2022-08-25T12:16:03.981Z,8.90
2022-08-25T12:18:15.435Z,8.35
2022-08-25T12:20:20.691Z,8.82
2022-08-25T12:22:51.663Z,8.80
2022-08-25T12:25:00.317Z,9.30
2022-08-25T12:27:09.354Z,8.13
2022-08-25T12:29:19.507Z,8.68
2022-08-25T12:31:51.106Z,9.43
2022-08-25T12:34:26.941Z,7.30
2022-08-25T12:36:34.183Z,8.95
2022-08-25T12:38:49.622Z,7.72
2022-08-25T12:41:03.527Z,7.45
2022-08-25T12:43:14.662Z,7.35
2022-08-25T12:45:42.486Z,15.05
2022-08-25T12:47:52.494Z,8.45
2022-08-25T12:50:33.338Z,6.38
2022-08-25T12:52:41.252Z,6.13
2022-08-25T12:54:51.882Z,6.60
2022-08-25T12:57:03.099Z,8.45
2022-08-25T12:59:19.601Z,6.68
2022-08-25T13:01:36.863Z,8.03
2022-08-25T13:04:09.338Z,5.65
2022-08-25T13:06:44.208Z,5.80
2022-08-25T13:09:25.858Z,6.40
2022-08-25T13:11:40.928Z,5.88
2022-08-25T13:13:53.565Z,7.32
2022-08-25T13:16:04.968Z,6.50
2022-08-25T13:18:23.649Z,8.98
2022-08-25T13:20:31.374Z,9.88
2022-08-25T13:22:40.897Z,10.55
2022-08-25T13:24:50.710Z,7.93
2022-08-25T13:26:59.452Z,13.07
2022-08-25T13:29:17.636Z,8.95
2022-08-25T13:31:28.199Z,8.18
2022-08-25T13:33:35.727Z,9.98
2022-08-25T13:36:14.052Z,8.70
2022-08-25T13:38:18.715Z,7.68
2022-08-25T13:40:29.451Z,7.32
2022-08-25T13:42:36.526Z,8.27
2022-08-25T13:44:42.131Z,10.35
2022-08-25T13:47:09.229Z,6.05
2022-08-25T13:49:14.725Z,10.18
2022-08-25T13:51:31.207Z,9.45
2022-08-25T13:53:36.912Z,10.77
2022-08-25T13:55:52.295Z,9.93
2022-08-25T13:57:57.593Z,9.20
2022-08-25T14:00:07.184Z,5.90
2022-08-25T14:02:19.519Z,10.00
2022-08-25T14:04:34.584Z,10.85
2022-08-25T14:06:44.282Z,8.75
2022-08-25T14:08:54.744Z,22.50
2022-08-25T14:11:14.627Z,8.48
2022-08-25T14:13:33.244Z,6.03
2022-08-25T14:15:38.816Z,9.27
2022-08-25T14:19:52.263Z,15.02
2022-08-25T14:24:08.486Z,7.38
2022-08-25T14:26:15.987Z,5.88
2022-08-25T14:28:23.868Z,4.30
2022-08-25T14:30:30.624Z,7.45
2022-08-25T14:32:35.710Z,8.18
2022-08-25T14:34:43.025Z,6.75
2022-08-25T14:36:48.806Z,7.35
2022-08-25T14:38:57.022Z,5.45
2022-08-25T14:41:02.069Z,6.28
2022-08-25T14:43:09.552Z,4.80
2022-08-25T14:45:15.201Z,5.35
2022-08-25T14:47:23.903Z,8.45
2022-08-25T14:49:33.836Z,6.10
2022-08-25T14:51:41.576Z,8.45
2022-08-25T14:53:48.741Z,6.00
2022-08-25T14:55:58.961Z,5.47
2022-08-25T14:58:04.245Z,7.13
2022-08-25T15:00:12.848Z,6.85
2022-08-25T15:02:20.295Z,8.95
2022-08-25T15:04:30.349Z,10.20
2022-08-25T15:06:36.935Z,5.32
2022-08-25T15:08:54.645Z,7.70
2022-08-25T15:11:02.137Z,9.63
2022-08-25T15:13:14.863Z,7.25
2022-08-25T15:15:20.679Z,5.97
2022-08-25T15:17:26.164Z,6.22
2022-08-25T15:19:31.492Z,8.00
2022-08-25T15:21:36.589Z,5.43
2022-08-25T15:23:44.585Z,6.63
2022-08-25T15:25:52.608Z,10.00
2022-08-25T15:28:00.889Z,9.65
2022-08-25T15:30:06.851Z,6.90
2022-08-25T15:32:12.579Z,8.50
2022-08-25T15:34:17.887Z,7.60
2022-08-25T15:36:28.452Z,7.15
2022-08-25T15:38:33.394Z,5.85
2022-08-25T15:40:39.924Z,6.57
2022-08-25T15:42:45.852Z,6.45
2022-08-25T15:44:56.318Z,9.95
2022-08-25T15:47:01.661Z,7.88
2022-08-25T15:49:07.874Z,6.38
2022-08-25T15:51:13.243Z,6.38
2022-08-25T15:53:18.127Z,11.35
2022-08-25T15:55:23.799Z,7.30
2022-08-25T15:57:28.905Z,5.75
2022-08-25T15:59:34.054Z,6.75
2022-08-25T16:01:43.175Z,6.13
2022-08-25T16:03:48.985Z,6.25
2022-08-25T16:05:54.301Z,6.45
2022-08-25T16:07:59.524Z,8.98
2022-08-25T16:10:05.087Z,8.05
2022-08-25T16:12:10.141Z,7.63
2022-08-25T16:14:15.200Z,6.18
2022-08-25T16:16:21.129Z,8.40
2022-08-25T16:18:28.917Z,8.55
2022-08-25T16:20:36.443Z,6.72
2022-08-25T16:22:41.496Z,9.98
2022-08-25T16:24:47.450Z,7.60
2022-08-25T16:26:52.494Z,7.10
2022-08-25T16:29:01.052Z,7.60
2022-08-25T16:31:13.743Z,7.40
2022-08-25T16:33:19.611Z,9.82
2022-08-25T16:35:28.184Z,7.85
2022-08-25T16:37:36.056Z,9.10
2022-08-25T16:39:44.286Z,11.23
2022-08-25T16:41:49.547Z,8.30
2022-08-25T16:43:58.463Z,5.75
2022-08-25T16:46:05.157Z,6.78
2022-08-25T16:48:11.410Z,6.60
2022-08-25T16:50:17.127Z,10.07
2022-08-25T16:52:37.116Z,8.00
2022-08-25T16:55:03.187Z,6.18
2022-08-25T16:57:08.112Z,6.70
2022-08-25T16:59:14.610Z,6.70
2022-08-25T17:01:19.521Z,8.77
2022-08-25T17:05:30.186Z,7.50
2022-08-25T17:07:38.218Z,8.32
2022-08-25T17:09:43.060Z,7.25
2022-08-25T17:11:56.784Z,7.05
2022-08-25T17:14:04.147Z,6.32
2022-08-25T17:16:16.779Z,7.57
2022-08-25T17:18:21.848Z,8.38
2022-08-25T17:20:29.204Z,8.10
2022-08-25T17:22:34.039Z,7.78
2022-08-25T17:24:42.681Z,6.80
2022-08-25T17:26:50.085Z,8.95
2022-08-25T17:28:59.335Z,8.20
2022-08-25T17:31:04.608Z,7.68
2022-08-25T17:33:09.584Z,7.95
2022-08-25T17:35:15.146Z,7.47
2022-08-25T17:37:20.113Z,8.80
2022-08-25T17:39:27.227Z,7.03
2022-08-25T17:41:34.837Z,8.57
2022-08-25T17:43:45.186Z,6.82
2022-08-25T17:45:51.502Z,5.13
2022-08-25T17:47:56.484Z,7.45
2022-08-25T17:50:01.750Z,7.25
2022-08-25T17:52:07.932Z,7.13
2022-08-25T17:54:13.018Z,8.05
2022-08-25T17:56:21.130Z,7.32
2022-08-25T17:58:28.657Z,6.93
2022-08-25T18:00:34.505Z,5.38
2022-08-25T18:02:39.576Z,6.28
2022-08-25T18:09:00.190Z,7.72
2022-08-25T18:11:06.155Z,7.50
2022-08-25T18:13:13.550Z,9.05
2022-08-25T18:15:22.016Z,6.18
2022-08-25T18:17:27.742Z,8.77
2022-08-25T18:19:33.961Z,10.50
2022-08-25T18:21:39.463Z,9.52
2022-08-25T18:23:45.255Z,5.55
2022-08-25T18:25:52.589Z,6.68
2022-08-25T18:28:06.633Z,7.30
2022-08-25T18:30:13.016Z,8.93
2022-08-25T18:32:21.318Z,8.45
2022-08-25T18:34:31.814Z,7.15
2022-08-25T18:36:38.523Z,6.38
2022-08-25T18:38:58.229Z,8.45
2022-08-25T18:41:05.798Z,7.75
2022-08-25T18:43:15.120Z,6.53
2022-08-25T18:45:20.388Z,8.55
2022-08-25T18:47:27.926Z,5.65
2022-08-25T18:49:32.845Z,6.93
2022-08-25T18:53:50.319Z,6.43
2022-08-25T18:55:56.348Z,6.78
2022-08-25T18:58:01.691Z,6.88
2022-08-25T19:00:09.037Z,7.70
2022-08-25T19:02:14.761Z,7.97
2022-08-25T19:04:31.533Z,8.25
2022-08-25T19:06:37.370Z,7.90
2022-08-25T19:08:42.394Z,8.32
2022-08-25T19:10:49.926Z,6.72
2022-08-25T19:12:58.461Z,7.53
2022-08-25T19:15:13.257Z,8.18
2022-08-25T19:17:18.191Z,7.35
2022-08-25T19:21:30.389Z,7.28
2022-08-25T19:23:38.126Z,9.10
2022-08-25T19:25:44.450Z,9.27
2022-08-25T19:27:53.536Z,9.15
2022-08-25T19:29:58.349Z,11.05
2022-08-25T19:32:04.358Z,7.38
2022-08-25T19:34:11.905Z,7.75
2022-08-25T19:36:23.096Z,8.52
2022-08-25T19:38:33.800Z,8.82
2022-08-25T19:40:40.710Z,10.57
2022-08-25T19:42:45.994Z,8.95
2022-08-25T19:44:52.604Z,9.02
2022-08-25T19:46:58.341Z,7.18
2022-08-25T19:49:07.348Z,8.68
2022-08-25T19:51:13.370Z,8.18
2022-08-25T19:53:20.917Z,10.60
2022-08-25T19:55:25.789Z,8.82
2022-08-25T19:59:49.610Z,8.50
2022-08-25T20:01:55.674Z,7.78
2022-08-25T20:04:03.544Z,8.23
2022-08-25T20:06:09.113Z,9.85
2022-08-25T20:08:15.953Z,8.45
2022-08-25T20:12:29.378Z,8.50
2022-08-25T20:14:36.639Z,8.80
2022-08-25T20:16:43.243Z,10.77
2022-08-25T20:18:51.122Z,11.98
2022-08-25T20:20:55.980Z,7.35
2022-08-25T20:23:22.846Z,9.73
2022-08-25T20:25:28.132Z,13.00
2022-08-25T20:27:45.226Z,13.10
2022-08-25T20:29:51.502Z,10.18
2022-08-25T20:31:56.792Z,7.70
2022-08-25T20:34:03.003Z,10.20
2022-08-25T20:36:08.501Z,10.98
2022-08-25T20:38:13.652Z,13.45
2022-08-25T20:42:33.182Z,7.28
2022-08-25T20:44:42.065Z,9.88
2022-08-25T20:46:47.479Z,8.68
2022-08-25T20:48:57.749Z,8.95
2022-08-25T20:51:05.917Z,9.98
2022-08-25T20:53:13.588Z,10.30
2022-08-25T20:55:19.232Z,7.65
2022-08-25T20:57:26.596Z,9.18
2022-08-25T20:59:35.916Z,10.55
2022-08-25T21:01:42.390Z,9.50
2022-08-25T21:03:47.628Z,14.25
2022-08-25T21:05:54.129Z,8.80
2022-08-25T21:08:01.465Z,10.02
2022-08-25T21:10:10.553Z,9.70
2022-08-25T21:12:19.343Z,9.80
2022-08-25T21:14:25.018Z,11.35
2022-08-25T21:16:34.276Z,9.52
2022-08-25T21:18:39.494Z,12.55
2022-08-25T21:20:52.687Z,8.93
2022-08-25T21:22:57.641Z,10.55
2022-08-25T21:25:02.453Z,10.35
2022-08-25T21:27:08.512Z,10.93
2022-08-25T21:29:15.142Z,12.98
2022-08-25T21:31:22.781Z,9.13
2022-08-25T21:33:31.298Z,13.00
2022-08-25T21:35:36.429Z,10.57
2022-08-25T21:37:41.242Z,14.10
2022-08-25T21:39:46.976Z,13.25
2022-08-25T21:41:52.790Z,11.57
2022-08-25T21:43:59.165Z,13.00
2022-08-25T21:46:04.706Z,10.73
2022-08-25T21:48:12.580Z,12.15
2022-08-25T21:50:20.253Z,10.55
2022-08-25T21:52:25.153Z,10.55
2022-08-25T21:54:30.019Z,8.48
2022-08-25T21:56:34.947Z,9.43
2022-08-25T21:58:41.756Z,10.55
2022-08-25T22:00:46.669Z,11.73
2022-08-25T22:02:52.096Z,11.45
2022-08-25T22:04:57.833Z,9.98
2022-08-25T22:07:06.890Z,10.50
2022-08-25T22:09:13.755Z,9.93
2022-08-25T22:11:19.464Z,10.45
2022-08-25T22:13:24.599Z,8.38
2022-08-25T22:15:29.867Z,11.55
2022-08-25T22:17:36.066Z,10.93
2022-08-25T22:19:41.606Z,10.50
2022-08-25T22:21:47.809Z,13.02
2022-08-25T22:23:56.060Z,12.27
2022-08-25T22:26:01.093Z,13.55
2022-08-25T22:30:13.778Z,10.50
2022-08-25T22:32:18.688Z,9.05
2022-08-25T22:34:30.566Z,9.15
2022-08-25T22:36:39.041Z,15.38
2022-08-25T22:38:44.591Z,14.05
2022-08-25T22:40:52.940Z,10.95
2022-08-25T22:42:57.966Z,11.80
2022-08-25T22:45:04.000Z,9.02
2022-08-25T22:47:09.434Z,12.10
2022-08-25T22:49:16.789Z,11.35
2022-08-25T22:51:25.308Z,12.80
2022-08-25T22:53:30.127Z,12.55
2022-08-25T22:57:43.048Z,14.43
2022-08-25T22:59:48.159Z,14.90
2022-08-25T23:01:57.082Z,13.95
2022-08-25T23:04:03.090Z,12.18
2022-08-25T23:06:08.054Z,10.63
2022-08-25T23:08:13.226Z,11.40
2022-08-25T23:10:20.857Z,12.85
2022-08-25T23:12:25.904Z,10.10
2022-08-25T23:14:36.828Z,11.25
2022-08-25T23:16:42.486Z,11.48
2022-08-25T23:18:47.572Z,14.07
2022-08-25T23:23:09.913Z,15.75
2022-08-25T23:27:23.922Z,11.68
2022-08-25T23:29:29.220Z,9.20
2022-08-25T23:31:36.871Z,10.13
2022-08-25T23:33:42.241Z,10.65
2022-08-25T23:35:47.463Z,13.02
2022-08-25T23:37:52.507Z,10.65
2022-08-25T23:39:58.593Z,9.43
2022-08-25T23:42:03.902Z,11.35
2022-08-25T23:44:11.906Z,10.57
2022-08-25T23:46:26.417Z,14.45
2022-08-25T23:48:34.319Z,13.27
2022-08-25T23:50:43.785Z,10.85
2022-08-25T23:52:48.771Z,9.70
2022-08-25T23:54:54.419Z,12.75
2022-08-25T23:56:59.280Z,11.52
2022-08-25T23:59:05.581Z,10.07
